Time;durP1;ratioP1;P1;durP2;ratioP2;P2;SDS_P1;SDS_P2;PMS_P1;PMS_P2;Temp;Humidity;BMP_temperature;BMP_pressure;BME280_temperature;BME280_humidity;BME280_pressure;Samples;Min_cycle;Max_cycle;Signal;HPM_P1;HPM_P2
2022/02/11 00:07:37;;;;;;;12.85;6.17;;;;;;;5.12;77.86;100463.59;2035995;85;21092;-83
2022/02/11 00:10:46;;;;;;;12.80;6.65;;;;;;;5.09;77.85;100448.52;2024341;86;21053;-83
2022/02/11 00:13:49;;;;;;;8.50;4.92;;;;;;;5.12;78.04;100452.22;2028984;85;21111;-83
2022/02/11 00:16:54;;;;;;;4.00;3.10;;;;;;;5.19;78.10;100449.95;2047608;86;21073;-83
2022/02/11 00:19:57;;;;;;;4.28;2.70;;;;;;;5.20;77.94;100453.75;2050211;86;21005;-83
2022/02/11 00:23:03;;;;;;;5.30;2.80;;;;;;;5.17;77.88;100451.38;2051381;86;21153;-83
2022/02/11 00:26:09;;;;;;;3.72;2.52;;;;;;;5.15;77.91;100448.02;2033369;85;21061;-83
2022/02/11 00:30:16;;;;;;;6.75;3.02;;;;;;;5.15;77.81;100459.41;2048837;85;21057;-83
2022/02/11 00:35:56;;;;;;;7.00;4.25;;;;;;;5.09;77.88;100461.19;2028449;86;21100;-83
2022/02/11 00:45:47;;;;;;;5.90;3.60;;;;;;;4.99;78.17;100460.75;2044678;85;21769;-83
2022/02/11 01:05:08;;;;;;;3.77;2.75;;;;;;;5.08;78.33;100460.84;2050048;85;21567;-83
2022/02/11 01:08:14;;;;;;;4.42;3.27;;;;;;;5.08;78.23;100460.84;2029143;85;21076;-83
2022/02/11 01:11:23;;;;;;;7.47;4.28;;;;;;;5.02;78.05;100460.51;2030964;85;21051;-83
2022/02/11 01:14:43;;;;;;;6.75;4.50;;;;;;;4.96;78.09;100454.42;2038203;85;21068;-83
2022/02/11 01:17:48;;;;;;;7.15;4.53;;;;;;;4.91;78.14;100462.19;2036550;85;21076;-83
2022/02/11 01:20:58;;;;;;;8.88;5.22;;;;;;;4.86;78.18;100453.82;2030607;86;21082;-82
2022/02/11 01:24:22;;;;;;;9.65;4.85;;;;;;;4.93;78.34;100447.13;2010092;86;21096;-82
2022/02/11 01:27:23;;;;;;;8.35;5.03;;;;;;;4.99;78.35;100446.29;2051144;85;21635;-83
2022/02/11 01:40:09;;;;;;;9.30;5.55;;;;;;;5.01;78.25;100428.57;2050558;85;21121;-83
2022/02/11 01:46:22;;;;;;;8.78;5.50;;;;;;;5.00;78.33;100434.31;2031674;86;21072;-82
2022/02/11 01:59:34;;;;;;;9.25;5.20;;;;;;;4.91;78.28;100417.97;2046910;85;21112;-83
2022/02/11 02:09:19;;;;;;;10.55;6.78;;;;;;;4.88;78.43;100411.16;2037320;85;21111;-83
2022/02/11 02:22:36;;;;;;;8.93;4.33;;;;;;;4.69;78.63;100407.84;2053036;85;21048;-82
2022/02/11 02:25:36;;;;;;;6.90;4.90;;;;;;;4.72;78.80;100403.64;2032206;86;21057;-83
2022/02/11 02:29:22;;;;;;;7.85;5.97;;;;;;;4.76;78.85;100400.77;2012362;86;21128;-83
2022/02/11 02:32:27;;;;;;;7.67;5.65;;;;;;;4.76;78.88;100404.27;2047990;85;21100;-83
2022/02/11 03:00:58;;;;;;;8.00;5.78;;;;;;;4.68;79.23;100382.52;2038466;85;21108;-82
2022/02/11 04:27:51;;;;;;;11.25;7.45;;;;;;;4.97;80.03;100319.34;2023391;85;21598;-85
2022/02/11 04:56:20;;;;;;;10.60;8.05;;;;;;;4.80;80.32;100304.94;2044438;85;21639;-83
2022/02/11 04:59:39;;;;;;;8.90;6.70;;;;;;;4.81;80.38;100307.42;2051902;85;22217;-83
2022/02/11 05:02:49;;;;;;;8.35;6.72;;;;;;;4.90;80.58;100311.95;2029913;86;21125;-85
2022/02/11 05:05:51;;;;;;;8.83;7.55;;;;;;;4.93;80.58;100299.88;2006673;85;21641;-83
2022/02/11 05:08:55;;;;;;;13.38;7.35;;;;;;;4.95;80.53;100303.67;2044190;85;21083;-83
2022/02/11 05:11:58;;;;;;;8.75;6.85;;;;;;;4.93;80.45;100299.04;2046694;85;21028;-83
2022/02/11 05:15:08;;;;;;;9.13;6.97;;;;;;;4.91;80.47;100300.95;2054176;85;22255;-83
2022/02/11 05:18:10;;;;;;;9.73;6.78;;;;;;;4.89;80.49;100299.75;2009807;85;21084;-83
2022/02/11 05:21:13;;;;;;;9.35;7.17;;;;;;;4.88;80.58;100296.78;2026803;85;21081;-84
2022/02/11 05:24:19;;;;;;;12.10;7.85;;;;;;;4.88;80.61;100292.83;2032531;85;21563;-84
2022/02/11 05:27:23;;;;;;;10.72;7.95;;;;;;;4.88;80.58;100292.00;2028682;86;21072;-84
2022/02/11 05:30:25;;;;;;;13.22;8.88;;;;;;;4.91;80.73;100286.00;2055121;85;21069;-84
2022/02/11 05:33:29;;;;;;;10.60;7.83;;;;;;;4.84;80.56;100290.11;2032671;85;21061;-84
2022/02/11 05:36:32;;;;;;;10.70;8.00;;;;;;;4.75;80.66;100292.64;2030450;85;21583;-84
2022/02/11 05:39:34;;;;;;;9.93;7.25;;;;;;;4.70;80.73;100285.98;2050714;85;21092;-83
2022/02/11 05:42:41;;;;;;;10.30;7.53;;;;;;;4.71;80.86;100292.06;2050399;85;21140;-84
2022/02/11 05:45:45;;;;;;;9.45;6.80;;;;;;;4.67;80.81;100295.43;2049176;85;21067;-84
2022/02/11 05:48:49;;;;;;;10.20;7.70;;;;;;;4.68;80.95;100293.63;2050351;85;21595;-84
2022/02/11 05:51:53;;;;;;;10.35;7.55;;;;;;;4.75;81.09;100292.64;2032211;85;21076;-84
2022/02/11 05:54:55;;;;;;;11.43;8.30;;;;;;;4.82;81.09;100295.14;2008595;86;21051;-85
2022/02/11 05:57:59;;;;;;;11.22;8.33;;;;;;;4.85;80.95;100292.26;2030872;86;21167;-83
2022/02/11 06:01:06;;;;;;;10.08;7.37;;;;;;;4.78;80.82;100289.77;2030901;86;21096;-84
2022/02/11 06:04:08;;;;;;;11.43;8.50;;;;;;;4.70;80.83;100299.58;2030871;85;21058;-84
2022/02/11 06:07:12;;;;;;;12.40;7.90;;;;;;;4.66;80.95;100300.31;2034006;86;21065;-84
2022/02/11 06:10:16;;;;;;;11.22;8.18;;;;;;;4.68;81.10;100301.03;2051707;85;21076;-84
2022/02/11 06:13:19;;;;;;;15.18;9.23;;;;;;;4.76;81.24;100303.05;2024740;86;21067;-85
2022/02/11 06:16:25;;;;;;;16.75;10.23;;;;;;;4.82;81.31;100306.48;2031734;86;21148;-84
2022/02/11 06:19:27;;;;;;;14.20;9.25;;;;;;;4.88;81.34;100302.03;2030272;85;22480;-85
2022/02/11 06:22:31;;;;;;;6.67;5.28;;;;;;;4.88;80.99;100299.41;2030630;85;21013;-84
2022/02/11 06:25:34;;;;;;;4.85;3.25;;;;;;;4.80;80.67;100311.02;2050230;86;21111;-84
2022/02/11 06:28:38;;;;;;;6.67;4.30;;;;;;;4.72;80.38;100312.13;2051513;85;22396;-83
2022/02/11 06:31:42;;;;;;;7.92;5.47;;;;;;;4.62;80.27;100317.79;2029972;86;21710;-83
2022/02/11 06:34:45;;;;;;;7.15;4.60;;;;;;;4.57;80.43;100315.52;2048451;86;21068;-84
2022/02/11 06:37:51;;;;;;;6.87;4.37;;;;;;;4.55;80.48;100315.28;2022941;85;21105;-84
2022/02/11 06:40:56;;;;;;;6.65;4.37;;;;;;;4.46;80.32;100316.38;2027521;86;21087;-83
2022/02/11 06:44:00;;;;;;;5.42;4.35;;;;;;;4.40;80.32;100316.04;2025514;86;21598;-84
2022/02/11 06:47:04;;;;;;;10.82;4.85;;;;;;;4.36;80.47;100314.11;2048881;85;21013;-83
2022/02/11 06:50:10;;;;;;;7.87;3.95;;;;;;;4.33;80.54;100318.30;2057903;85;21615;-83
2022/02/11 06:53:15;;;;;;;7.12;4.10;;;;;;;4.30;80.43;100314.61;2005938;85;21516;-82
2022/02/11 06:56:17;;;;;;;4.85;3.45;;;;;;;4.26;80.52;100321.07;2035345;86;21052;-83
2022/02/11 06:59:22;;;;;;;8.00;3.27;;;;;;;4.26;80.54;100318.44;2052013;86;21540;-82
2022/02/11 07:02:28;;;;;;;4.67;3.75;;;;;;;4.29;80.57;100330.50;2033437;85;21091;-82
2022/02/11 07:05:30;;;;;;;10.45;3.50;;;;;;;4.28;80.50;100330.98;2050035;85;21088;-80
2022/02/11 07:08:32;;;;;;;5.37;3.58;;;;;;;4.27;80.54;100324.87;2030580;85;21113;-80
2022/02/11 07:11:35;;;;;;;4.03;3.50;;;;;;;4.27;80.57;100332.75;2011052;86;21071;-83
2022/02/11 07:14:37;;;;;;;6.28;3.87;;;;;;;4.19;80.51;100332.52;2027516;85;21033;-79
2022/02/11 07:17:39;;;;;;;6.25;3.83;;;;;;;4.15;80.62;100331.59;2037802;85;21143;-81
2022/02/11 07:20:44;;;;;;;9.23;4.10;;;;;;;4.11;80.66;100331.45;2003910;85;21076;-81
2022/02/11 07:23:47;;;;;;;7.22;4.62;;;;;;;4.12;80.84;100335.28;2030601;86;21159;-81
2022/02/11 07:26:51;;;;;;;6.65;4.60;;;;;;;4.17;80.87;100328.37;2042811;85;21105;-82
2022/02/11 07:29:56;;;;;;;9.65;6.17;;;;;;;4.18;80.83;100328.23;2004504;85;20962;-82
2022/02/11 07:33:03;;;;;;;4.30;3.12;;;;;;;4.18;80.68;100332.17;2050997;85;21073;-83
2022/02/11 07:36:09;;;;;;;4.08;2.60;;;;;;;4.05;80.21;100331.45;2056021;85;21092;-79
2022/02/11 07:39:13;;;;;;;3.30;2.72;;;;;;;3.84;79.78;100332.66;2031320;86;21089;-84
2022/02/11 07:42:17;;;;;;;5.10;3.42;;;;;;;3.67;80.02;100327.87;2006041;86;21361;-83
2022/02/11 07:45:20;;;;;;;2.95;2.45;;;;;;;3.56;80.12;100325.58;2031259;85;21780;-87
2022/02/11 07:48:23;;;;;;;2.55;2.20;;;;;;;3.46;80.30;100323.28;1984292;85;21080;-85
2022/02/11 07:51:28;;;;;;;3.87;2.45;;;;;;;3.41;80.32;100333.75;1989726;86;22470;-79
2022/02/11 07:54:35;;;;;;;4.80;2.67;;;;;;;3.35;80.39;100341.16;2049854;85;21172;-83
2022/02/11 07:57:42;;;;;;;6.50;3.67;;;;;;;3.37;80.67;100337.92;2015408;85;21622;-79
2022/02/11 08:00:46;;;;;;;5.50;4.08;;;;;;;3.35;80.68;100343.78;2054525;85;21564;-79
2022/02/11 08:03:52;;;;;;;8.98;4.80;;;;;;;3.28;80.66;100347.80;2033044;85;21060;-82
2022/02/11 08:06:59;;;;;;;6.53;4.05;;;;;;;3.20;80.62;100351.95;1967155;85;21113;-81
2022/02/11 08:10:04;;;;;;;8.75;4.70;;;;;;;3.07;80.55;100351.55;2051599;85;21048;-82
2022/02/11 08:13:06;;;;;;;9.90;4.03;;;;;;;2.98;80.71;100357.45;2041949;85;21051;-81
2022/02/11 08:16:09;;;;;;;3.92;2.70;;;;;;;2.92;80.86;100348.72;2029341;85;21052;-82
2022/02/11 08:19:15;;;;;;;5.37;3.30;;;;;;;2.85;80.93;100349.66;2047078;85;21045;-81
2022/02/11 08:22:20;;;;;;;5.22;3.50;;;;;;;2.80;81.16;100351.77;2017611;86;21087;-81
2022/02/11 08:25:22;;;;;;;5.45;3.77;;;;;;;2.73;80.64;100365.42;2025824;86;21100;-81
2022/02/11 08:28:27;;;;;;;5.10;3.35;;;;;;;2.64;80.72;100368.22;2035548;85;21572;-81
2022/02/11 08:31:34;;;;;;;3.87;2.77;;;;;;;2.54;81.00;100365.44;2048314;85;21097;-80
2022/02/11 08:34:36;;;;;;;3.30;2.65;;;;;;;2.42;81.26;100370.22;2010652;85;21090;-79
2022/02/11 08:37:44;;;;;;;3.67;2.30;;;;;;;2.30;81.07;100365.86;2028869;85;21587;-77
2022/02/11 08:40:46;;;;;;;3.05;2.42;;;;;;;2.26;81.30;100363.93;2041175;86;21088;-78
2022/02/11 08:43:49;;;;;;;4.00;2.87;;;;;;;2.21;81.10;100363.41;2030840;85;21667;-80
2022/02/11 08:46:52;;;;;;;4.37;2.95;;;;;;;2.23;81.33;100354.51;2027366;85;21117;-80
2022/02/11 08:49:59;;;;;;;5.25;3.50;;;;;;;2.27;81.23;100353.81;2023847;85;21082;-82
2022/02/11 08:53:00;;;;;;;4.78;3.75;;;;;;;2.20;81.12;100372.22;2054259;85;20994;-86
2022/02/11 08:56:07;;;;;;;5.30;3.62;;;;;;;2.12;80.99;100383.22;2031112;86;21095;-85
2022/02/11 08:59:09;;;;;;;6.78;4.28;;;;;;;2.07;81.01;100382.69;2053503;85;21067;-83
2022/02/11 09:02:12;;;;;;;4.95;3.60;;;;;;;1.95;80.81;100390.09;2028231;86;22378;-86
2022/02/11 09:05:16;;;;;;;4.85;3.45;;;;;;;1.93;81.07;100397.20;2050059;85;21594;-85
2022/02/11 09:08:18;;;;;;;4.92;3.47;;;;;;;1.87;80.98;100397.62;2037083;85;21633;-88
2022/02/11 09:11:21;;;;;;;8.53;4.85;;;;;;;1.84;80.94;100404.38;2007843;85;21773;-89
2022/02/11 09:14:25;;;;;;;6.33;4.78;;;;;;;1.77;81.04;100396.94;2047852;85;21125;-91
2022/02/11 09:17:34;;;;;;;8.20;4.92;;;;;;;1.75;81.09;100398.81;2030615;85;21614;-90
2022/02/11 09:20:36;;;;;;;7.55;5.33;;;;;;;1.75;81.06;100394.89;2027017;86;21048;-91
2022/02/11 09:23:44;;;;;;;7.47;4.47;;;;;;;1.71;81.12;100393.88;2033605;86;21119;-91
2022/02/11 09:26:47;;;;;;;7.90;4.83;;;;;;;1.68;81.28;100398.84;2030986;85;22460;-92
2022/02/11 09:29:52;;;;;;;6.80;5.12;;;;;;;1.64;81.34;100405.72;2051320;86;21076;-91
2022/02/11 09:33:01;;;;;;;6.12;4.47;;;;;;;1.59;81.43;100410.41;1990433;86;21052;-87
2022/02/11 09:36:04;;;;;;;10.65;3.67;;;;;;;1.54;81.64;100418.55;2032052;85;21045;-91
2022/02/11 09:39:12;;;;;;;2.42;2.22;;;;;;;1.49;81.83;100425.41;2033842;86;21103;-84
2022/02/11 09:42:19;;;;;;;3.45;2.37;;;;;;;1.48;82.14;100434.66;2028334;86;21076;-82
2022/02/11 09:45:24;;;;;;;2.40;1.65;;;;;;;1.44;82.14;100427.48;2015258;85;21637;-81
2022/02/11 09:48:27;;;;;;;3.75;2.10;;;;;;;1.40;82.66;100433.00;2032641;85;21056;-90
2022/02/11 09:51:31;;;;;;;3.62;2.40;;;;;;;1.36;82.85;100440.22;2048556;85;21108;-85
2022/02/11 09:54:36;;;;;;;7.03;2.83;;;;;;;1.33;82.97;100442.56;2046979;85;21052;-84
2022/02/11 09:57:44;;;;;;;4.50;2.58;;;;;;;1.33;82.68;100449.09;2053235;85;21547;-85
2022/02/11 10:00:52;;;;;;;4.00;2.75;;;;;;;1.37;82.66;100438.44;2022784;86;21092;-84
2022/02/11 10:04:20;;;;;;;3.35;2.15;;;;;;;1.42;82.79;100446.35;2027544;85;21170;-85
2022/02/11 10:07:25;;;;;;;2.72;2.30;;;;;;;1.44;82.92;100457.56;2053247;85;21192;-84
2022/02/11 10:10:49;;;;;;;2.55;2.35;;;;;;;1.52;83.07;100458.34;2009245;85;21610;-87
2022/02/11 10:13:53;;;;;;;2.98;2.67;;;;;;;1.52;82.83;100467.50;2053439;85;21623;-84
2022/02/11 10:17:05;;;;;;;3.85;2.75;;;;;;;1.55;82.92;100479.92;2028059;85;21116;-80
2022/02/11 10:20:11;;;;;;;4.15;2.75;;;;;;;1.59;82.85;100483.17;2047652;85;21369;-85
2022/02/11 10:23:23;;;;;;;4.65;3.22;;;;;;;1.63;82.84;100485.11;2049674;85;21516;-84
2022/02/11 10:26:27;;;;;;;2.40;2.20;;;;;;;1.65;82.77;100485.38;2027688;86;21076;-81
2022/02/11 10:29:41;;;;;;;3.77;2.67;;;;;;;1.69;82.80;100501.70;2039829;85;21052;-81
2022/02/11 10:32:52;;;;;;;2.75;2.27;;;;;;;1.66;82.89;100497.54;2041357;85;21062;-82
2022/02/11 10:35:56;;;;;;;4.37;2.08;;;;;;;1.61;82.74;100497.00;2027571;86;21562;-82
2022/02/11 10:39:27;;;;;;;3.35;2.30;;;;;;;1.53;82.68;100501.89;2046738;86;21059;-80
2022/02/11 10:42:48;;;;;;;2.27;1.90;;;;;;;1.53;82.87;100501.89;2032206;86;21124;-84
2022/02/11 10:45:51;;;;;;;2.25;1.92;;;;;;;1.65;83.18;100503.69;2033312;86;21081;-82
2022/02/11 10:48:59;;;;;;;3.52;2.40;;;;;;;1.74;83.15;100508.79;2031126;86;21603;-83
2022/02/11 10:52:33;;;;;;;4.03;2.80;;;;;;;1.78;83.01;100518.97;2052486;85;21092;-83
2022/02/11 10:55:34;;;;;;;5.65;3.00;;;;;;;1.73;82.80;100531.50;2006206;85;21064;-82
2022/02/11 10:58:39;;;;;;;4.00;2.80;;;;;;;1.65;82.74;100520.70;2029994;85;21133;-84
2022/02/11 11:01:45;;;;;;;3.05;2.47;;;;;;;1.59;82.81;100533.34;2012383;86;21084;-87
2022/02/11 11:04:52;;;;;;;3.50;2.37;;;;;;;1.57;82.98;100539.97;2033185;86;21119;-86
2022/02/11 11:07:57;;;;;;;7.35;4.40;;;;;;;1.57;82.89;100543.42;2028739;85;21662;-87
2022/02/11 11:11:04;;;;;;;3.42;3.05;;;;;;;1.60;83.07;100557.25;2032935;86;21298;-87
2022/02/11 11:14:09;;;;;;;8.98;5.58;;;;;;;1.56;83.09;100553.52;2050402;85;21036;-83
2022/02/11 11:17:12;;;;;;;6.60;4.22;;;;;;;1.56;83.21;100560.53;2029423;85;21071;-83
2022/02/11 11:20:15;;;;;;;6.08;3.80;;;;;;;1.53;83.25;100558.95;2031678;85;21115;-85
2022/02/11 11:23:31;;;;;;;5.37;3.70;;;;;;;1.53;83.43;100562.04;2050717;84;21454;-84
2022/02/11 11:26:47;;;;;;;4.45;3.10;;;;;;;1.51;83.36;100569.14;2053474;85;20962;-85
2022/02/11 11:29:52;;;;;;;4.00;2.67;;;;;;;1.50;83.42;100567.47;2030652;85;21074;-86
2022/02/11 11:33:16;;;;;;;4.37;3.12;;;;;;;1.49;83.58;100566.64;2032253;85;20990;-87
2022/02/11 11:36:20;;;;;;;4.72;3.27;;;;;;;1.52;83.66;100576.03;2052572;85;21093;-86
2022/02/11 11:39:23;;;;;;;5.95;3.22;;;;;;;1.49;83.65;100580.16;2032437;85;21068;-90
2022/02/11 11:42:26;;;;;;;5.25;3.00;;;;;;;1.41;83.57;100589.81;2030122;85;21060;-88
2022/02/11 11:45:29;;;;;;;6.67;4.03;;;;;;;1.34;83.63;100586.73;2025519;86;21551;-84
2022/02/11 11:49:11;;;;;;;10.18;6.35;;;;;;;1.36;83.66;100599.72;2033705;85;21168;-79
2022/02/11 11:52:13;;;;;;;6.92;4.75;;;;;;;1.41;84.00;100599.41;2044399;85;21107;-79
2022/02/11 11:55:23;;;;;;;5.75;4.10;;;;;;;1.42;83.96;100601.11;2033446;85;21217;-83
2022/02/11 11:58:46;;;;;;;8.18;5.00;;;;;;;1.42;84.15;100605.87;1988373;85;21049;-84
2022/02/11 12:02:19;;;;;;;7.83;4.45;;;;;;;1.42;84.13;100608.48;2050104;85;21052;-87
2022/02/11 12:05:45;;;;;;;8.48;4.80;;;;;;;1.49;84.58;100616.77;2050257;85;21109;-84
2022/02/11 12:08:48;;;;;;;6.37;4.40;;;;;;;1.57;84.58;100618.44;2052048;85;21045;-84
2022/02/11 12:12:07;;;;;;;8.00;5.17;;;;;;;1.62;84.46;100632.08;2050253;85;21422;-88
2022/02/11 12:15:10;;;;;;;8.58;4.65;;;;;;;1.62;84.29;100632.08;2027403;85;21047;-88
2022/02/11 12:18:15;;;;;;;7.22;4.85;;;;;;;1.67;84.47;100630.02;2028829;85;21624;-89
2022/02/11 12:21:19;;;;;;;6.97;4.70;;;;;;;1.70;84.33;100629.81;2028510;86;21536;-88
2022/02/11 12:27:51;;;;;;;8.68;4.90;;;;;;;1.73;84.32;100634.85;2034387;86;21065;-88
2022/02/11 12:31:04;;;;;;;9.33;5.67;;;;;;;1.75;84.37;100636.91;2034090;85;21021;-85
2022/02/11 12:34:15;;;;;;;7.22;4.78;;;;;;;1.83;84.49;100633.81;2050261;85;21580;-91
2022/02/11 12:37:18;;;;;;;9.78;6.25;;;;;;;1.93;84.60;100631.43;2010497;86;22510;-88
2022/02/11 12:40:36;;;;;;;7.40;5.33;;;;;;;1.98;84.65;100635.91;1983873;85;21088;-84
2022/02/11 12:43:36;;;;;;;9.63;6.40;;;;;;;2.04;84.59;100640.73;2031217;85;21119;-83
2022/02/11 12:46:39;;;;;;;8.98;5.40;;;;;;;2.13;84.66;100644.53;2050441;85;21084;-88
2022/02/11 12:49:47;;;;;;;7.65;5.75;;;;;;;2.14;84.66;100652.30;2005699;86;21966;-90
2022/02/11 12:52:50;;;;;;;5.80;4.65;;;;;;;2.16;84.58;100653.50;2003295;86;21587;-85
2022/02/11 12:55:55;;;;;;;7.65;4.60;;;;;;;2.15;84.58;100657.06;2056319;85;21065;-92
2022/02/11 12:59:09;;;;;;;4.60;3.12;;;;;;;2.18;84.56;100647.22;2009763;85;21033;-85
2022/02/11 13:02:31;;;;;;;4.62;3.77;;;;;;;2.20;84.59;100661.06;2055791;85;21064;-81
2022/02/11 13:05:46;;;;;;;4.83;3.50;;;;;;;2.22;84.69;100665.73;1986568;85;21104;-85
2022/02/11 13:08:49;;;;;;;5.55;2.92;;;;;;;2.29;84.77;100673.19;2055781;84;21081;-84
2022/02/11 13:11:55;;;;;;;5.87;3.05;;;;;;;2.32;84.60;100674.30;2049445;85;21551;-84
2022/02/11 13:15:02;;;;;;;5.25;3.35;;;;;;;2.34;84.42;100677.19;2052809;84;21052;-84
2022/02/11 13:18:17;;;;;;;6.10;3.20;;;;;;;2.38;84.61;100684.37;2033025;86;21040;-80
2022/02/11 13:21:22;;;;;;;5.00;3.22;;;;;;;2.44;84.50;100691.34;2032887;85;21108;-80
2022/02/11 13:24:25;;;;;;;5.87;3.30;;;;;;;2.50;84.38;100691.88;1980491;85;21044;-81
2022/02/11 13:27:49;;;;;;;4.53;2.95;;;;;;;2.53;84.35;100696.45;2052922;85;21049;-82
2022/02/11 13:30:58;;;;;;;4.15;2.77;;;;;;;2.50;84.17;100690.09;1984447;85;21056;-84
2022/02/11 13:34:05;;;;;;;4.57;2.60;;;;;;;2.51;84.13;100700.97;2008991;85;20985;-84
2022/02/11 13:37:06;;;;;;;3.90;2.70;;;;;;;2.46;83.78;100700.42;2055913;85;21077;-77
2022/02/11 13:40:16;;;;;;;4.15;2.65;;;;;;;2.46;84.04;100709.59;2035093;85;21075;-78
2022/02/11 13:43:18;;;;;;;2.95;2.40;;;;;;;2.45;84.08;100727.57;2031592;85;22216;-86
2022/02/11 13:46:33;;;;;;;2.67;2.10;;;;;;;2.38;83.78;100721.03;2007988;85;21446;-78
2022/02/11 13:49:40;;;;;;;2.33;2.12;;;;;;;2.33;83.91;100737.51;2032005;85;21045;-83
2022/02/11 13:53:02;;;;;;;4.25;2.30;;;;;;;2.28;83.75;100737.83;2032722;85;21049;-77
2022/02/11 13:56:15;;;;;;;2.47;2.20;;;;;;;2.28;83.98;100737.83;2036300;85;21045;-80
2022/02/11 13:59:34;;;;;;;2.22;2.02;;;;;;;2.29;83.95;100747.83;2003359;85;21567;-87
2022/02/11 14:02:41;;;;;;;3.05;2.20;;;;;;;2.30;84.01;100769.14;2005793;85;21646;-82
2022/02/11 14:05:48;;;;;;;3.45;2.52;;;;;;;2.28;83.81;100760.53;2032687;85;21018;-82
2022/02/11 14:08:54;;;;;;;3.62;2.10;;;;;;;2.25;83.80;100775.96;2010919;85;21128;-81
2022/02/11 14:12:00;;;;;;;2.98;2.40;;;;;;;2.23;83.87;100779.17;2027695;85;21662;-81
2022/02/11 14:15:04;;;;;;;2.52;1.75;;;;;;;2.25;83.95;100782.51;2051324;85;21626;-80
2022/02/11 14:18:08;;;;;;;2.33;1.82;;;;;;;2.27;83.85;100783.27;2026754;85;21065;-81
2022/02/11 14:21:17;;;;;;;1.77;1.67;;;;;;;2.21;83.55;100785.80;2024272;86;21115;-79
2022/02/11 14:24:24;;;;;;;2.85;2.20;;;;;;;2.15;83.54;100797.97;2031549;85;21104;-80
2022/02/11 14:27:27;;;;;;;3.42;2.22;;;;;;;2.12;83.57;100803.41;2031169;85;21067;-81
2022/02/11 14:30:29;;;;;;;3.35;2.90;;;;;;;2.22;83.95;100806.27;2028580;85;21144;-80
2022/02/11 14:33:34;;;;;;;4.12;3.30;;;;;;;2.28;83.63;100808.53;2026250;85;21044;-81
2022/02/11 14:36:38;;;;;;;8.13;3.92;;;;;;;2.30;83.60;100809.25;2049077;85;21072;-82
2022/02/11 14:39:43;;;;;;;3.40;2.90;;;;;;;2.35;83.61;100818.14;2006822;85;21520;-85
2022/02/11 14:42:46;;;;;;;3.55;2.65;;;;;;;2.42;83.49;100815.48;2051415;85;21036;-81
2022/02/11 14:45:51;;;;;;;6.58;3.17;;;;;;;2.39;83.00;100829.65;2023505;85;21093;-81
2022/02/11 14:48:54;;;;;;;9.05;5.20;;;;;;;2.34;82.83;100827.78;2011175;85;21068;-81
2022/02/11 14:52:01;;;;;;;15.63;7.62;;;;;;;2.29;82.73;100842.94;2003268;85;21084;-81
2022/02/11 14:55:08;;;;;;;28.75;10.48;;;;;;;2.31;82.99;100846.75;2012569;85;21060;-81
2022/02/11 14:58:12;;;;;;;11.55;6.08;;;;;;;2.35;83.06;100853.50;2033433;85;21612;-82
2022/02/11 15:01:14;;;;;;;11.53;6.10;;;;;;;2.38;82.83;100850.69;2030559;85;21097;-81
2022/02/11 15:04:20;;;;;;;5.45;2.90;;;;;;;2.39;82.71;100849.73;2030091;85;22034;-78
2022/02/11 15:07:25;;;;;;;5.08;3.42;;;;;;;2.32;81.84;100852.38;2054903;85;21092;-80
2022/02/11 15:10:28;;;;;;;6.00;3.80;;;;;;;2.27;82.06;100857.90;2050567;85;21359;-80
2022/02/11 15:13:34;;;;;;;5.65;3.40;;;;;;;2.41;82.78;100860.50;2030803;85;21385;-78
2022/02/11 15:16:37;;;;;;;6.55;3.52;;;;;;;2.50;82.69;100861.69;2052547;85;22223;-80
2022/02/11 15:19:41;;;;;;;5.00;2.80;;;;;;;2.63;82.48;100849.50;2010532;86;21082;-83
2022/02/11 15:22:45;;;;;;;6.22;3.27;;;;;;;2.53;81.48;100861.50;2030686;86;21089;-78
2022/02/11 15:25:48;;;;;;;6.60;4.00;;;;;;;2.36;81.15;100859.94;2053174;85;21088;-78
2022/02/11 15:28:54;;;;;;;10.08;4.83;;;;;;;2.21;81.50;100860.42;2033916;85;22100;-79
2022/02/11 15:31:59;;;;;;;6.40;4.20;;;;;;;2.11;81.48;100855.84;2052567;85;21072;-80
2022/02/11 15:35:05;;;;;;;7.72;3.95;;;;;;;2.02;81.49;100859.88;2032549;86;21076;-77
2022/02/11 15:38:09;;;;;;;6.67;4.15;;;;;;;1.96;81.50;100863.70;2033950;86;21076;-78
2022/02/11 15:41:13;;;;;;;6.22;3.95;;;;;;;1.89;81.53;100854.56;2049884;85;21014;-79
2022/02/11 15:44:19;;;;;;;7.55;4.75;;;;;;;1.84;81.56;100864.46;2046352;85;21041;-79
2022/02/11 15:47:25;;;;;;;11.33;5.55;;;;;;;1.85;81.63;100867.44;2026533;85;21092;-79
2022/02/11 15:50:28;;;;;;;8.80;4.17;;;;;;;1.85;81.62;100878.38;2052960;85;21080;-79
2022/02/11 15:53:32;;;;;;;9.33;4.65;;;;;;;1.79;81.63;100875.20;2050044;85;21033;-80
2022/02/11 15:56:36;;;;;;;10.32;5.33;;;;;;;1.74;81.62;100878.55;2050475;85;21069;-80
2022/02/11 15:59:47;;;;;;;4.30;3.40;;;;;;;1.67;81.59;100878.55;2030098;85;21061;-81
2022/02/11 16:02:52;;;;;;;7.78;3.62;;;;;;;1.61;81.62;100885.46;2051362;85;21667;-80
2022/02/11 16:05:54;;;;;;;4.75;3.25;;;;;;;1.55;81.63;100887.97;2028366;85;21887;-80
2022/02/11 16:08:56;;;;;;;6.45;3.87;;;;;;;1.53;81.67;100896.37;2054086;85;21116;-81
2022/02/11 16:12:00;;;;;;;7.30;4.00;;;;;;;1.52;81.57;100901.67;2027339;85;21107;-80
2022/02/11 16:15:03;;;;;;;14.10;7.92;;;;;;;1.52;81.61;100900.37;2027822;85;21037;-79
2022/02/11 16:18:14;;;;;;;33.67;15.37;;;;;;;1.46;81.51;100905.95;2028615;85;21094;-80
2022/02/11 16:21:10;;;;;;;29.48;14.70;;;;;;;1.43;81.52;100920.52;2028457;85;21642;-79
2022/02/11 16:24:13;;;;;;;39.78;17.65;;;;;;;1.42;81.60;100921.00;2029733;85;21096;-76
2022/02/11 16:27:17;;;;;;;46.58;19.87;;;;;;;1.44;81.59;100934.00;2031892;85;21018;-77
2022/02/11 16:30:23;;;;;;;27.10;13.03;;;;;;;1.42;81.53;100934.07;2024992;85;21573;-77
2022/02/11 16:33:27;;;;;;;29.80;16.37;;;;;;;1.44;81.59;100936.61;2050292;85;21152;-77
2022/02/11 16:36:32;;;;;;;19.00;10.08;;;;;;;1.46;81.62;100939.96;2053287;85;21094;-77
2022/02/11 16:39:34;;;;;;;15.98;9.43;;;;;;;1.47;81.52;100945.59;2051663;85;21060;-77
2022/02/11 16:42:38;;;;;;;18.40;10.30;;;;;;;1.41;81.39;100949.40;1994239;86;21566;-77
2022/02/11 16:45:41;;;;;;;19.98;11.18;;;;;;;1.36;81.41;100947.98;2026754;86;20986;-76
2022/02/11 16:48:43;;;;;;;21.70;12.35;;;;;;;1.32;81.53;100947.28;2030321;86;21606;-78
2022/02/11 16:51:46;;;;;;;21.68;11.40;;;;;;;1.28;81.58;100947.93;2056521;85;21180;-77
2022/02/11 16:54:49;;;;;;;18.62;10.23;;;;;;;1.23;81.46;100949.13;2031870;85;21084;-76
2022/02/11 16:57:51;;;;;;;23.95;12.65;;;;;;;1.19;81.50;100952.37;2032676;85;21053;-79
2022/02/11 17:00:57;;;;;;;21.33;12.23;;;;;;;1.17;81.48;100955.53;2031541;85;21072;-78
2022/02/11 17:04:01;;;;;;;24.70;13.98;;;;;;;1.12;81.41;100955.78;2052340;85;21111;-78
2022/02/11 17:07:03;;;;;;;35.48;20.52;;;;;;;1.12;81.44;100961.48;2029926;85;21084;-78
2022/02/11 17:10:07;;;;;;;54.27;27.15;;;;;;;1.09;81.53;100972.11;2030449;85;21597;-78
2022/02/11 17:13:10;;;;;;;53.20;27.27;;;;;;;1.06;81.51;100973.13;2031772;85;21639;-79
2022/02/11 17:16:13;;;;;;;57.15;27.40;;;;;;;0.99;81.42;100979.63;2050327;85;21083;-76
2022/02/11 17:19:17;;;;;;;48.42;24.45;;;;;;;0.97;81.54;100984.56;2051020;85;21037;-78
2022/02/11 17:22:19;;;;;;;59.23;32.13;;;;;;;1.00;81.60;100989.61;2051542;84;21060;-79
2022/02/11 17:25:21;;;;;;;40.90;20.72;;;;;;;1.01;81.69;100989.52;2028854;86;21065;-77
2022/02/11 17:28:27;;;;;;;30.88;19.98;;;;;;;1.05;81.78;101000.20;2047104;85;21073;-78
2022/02/11 17:31:29;;;;;;;25.40;15.00;;;;;;;1.08;81.79;100992.66;2029440;85;21125;-78
2022/02/11 17:34:31;;;;;;;30.10;21.75;;;;;;;1.07;81.68;101004.02;2009264;85;21656;-78
2022/02/11 17:37:35;;;;;;;24.47;15.60;;;;;;;1.05;81.59;101011.13;2028213;85;21421;-78
2022/02/11 17:40:39;;;;;;;36.80;20.92;;;;;;;0.96;81.36;101014.21;2051113;85;21080;-76
2022/02/11 17:43:41;;;;;;;34.40;19.57;;;;;;;0.86;81.33;101017.80;2035568;85;21052;-77
2022/02/11 17:46:49;;;;;;;40.55;23.07;;;;;;;0.71;81.23;101018.16;2030471;85;21105;-78
2022/02/11 17:49:52;;;;;;;51.02;27.17;;;;;;;0.59;81.49;101027.50;2054509;85;21107;-78
2022/02/11 17:52:55;;;;;;;78.50;37.13;;;;;;;0.55;81.67;101033.79;2048008;85;21306;-78
2022/02/11 17:55:59;;;;;;;85.40;36.28;;;;;;;0.49;81.77;101036.73;2032250;86;21123;-78
2022/02/11 17:59:03;;;;;;;74.92;30.57;;;;;;;0.47;81.85;101042.48;2047426;86;21132;-79
2022/02/11 18:02:06;;;;;;;101.15;34.65;;;;;;;0.42;81.74;101039.26;2028982;86;21037;-79